Time;durP1;ratioP1;P1;durP2;ratioP2;P2;SDS_P1;SDS_P2;PMS_P1;PMS_P2;Temp;Humidity;BMP_temperature;BMP_pressure;BME280_temperature;BME280_humidity;BME280_pressure;Samples;Min_cycle;Max_cycle;Signal;HPM_P1;HPM_P2
2023/05/31 00:01:33;;;;;;;;;;;10.80;99.90;;;;;;5079573;28;19924;-85
2023/05/31 00:03:59;;;;;;;;;;;10.80;99.90;;;;;;5093806;28;19924;-85
2023/05/31 00:06:24;;;;;;;;;;;10.70;99.90;;;;;;5091081;28;19932;-85
2023/05/31 00:08:50;;;;;;;;;;;10.70;99.90;;;;;;5093247;28;20454;-86
2023/05/31 00:11:15;;;;;;;;;;;10.70;99.90;;;;;;5088316;28;19958;-84
2023/05/31 00:13:41;;;;;;;;;;;10.70;99.90;;;;;;5093519;28;20077;-86
2023/05/31 00:16:10;;;;;;;;;;;10.60;99.90;;;;;;5098927;28;19934;-85
2023/05/31 00:18:35;;;;;;;;;;;10.70;99.90;;;;;;5093404;28;20642;-85
2023/05/31 00:21:01;;;;;;;;;;;10.50;99.90;;;;;;5098424;28;20636;-85
2023/05/31 00:23:27;;;;;;;;;;;10.70;99.90;;;;;;5095308;28;20216;-85
2023/05/31 00:25:52;;;;;;;;;;;10.50;99.90;;;;;;5084062;28;20420;-85
2023/05/31 00:28:18;;;;;;;;;;;10.50;99.90;;;;;;5085333;28;20069;-85
2023/05/31 00:30:43;;;;;;;;;;;10.50;99.90;;;;;;5092271;28;19927;-85
2023/05/31 00:33:09;;;;;;;;;;;10.40;99.90;;;;;;5098648;28;19927;-85
2023/05/31 00:35:34;;;;;;;;;;;10.30;99.90;;;;;;5095356;28;19928;-85
2023/05/31 00:38:04;;;;;;;;;;;10.30;99.90;;;;;;5092510;28;19954;-85
2023/05/31 00:40:30;;;;;;;;;;;10.30;99.90;;;;;;5092775;28;19943;-85
2023/05/31 00:42:55;;;;;;;;;;;10.30;99.90;;;;;;5093396;28;20285;-85
2023/05/31 00:45:22;;;;;;;;;;;10.30;99.90;;;;;;5093798;28;20374;-86
2023/05/31 00:47:49;;;;;;;;;;;10.30;99.90;;;;;;5081727;28;20372;-85
2023/05/31 00:50:15;;;;;;;;;;;10.20;99.90;;;;;;5092439;28;19940;-85
2023/05/31 00:52:41;;;;;;;;;;;10.10;99.90;;;;;;5095545;28;19924;-85
2023/05/31 00:55:07;;;;;;;;;;;10.10;99.90;;;;;;5097671;28;19924;-85
2023/05/31 00:57:32;;;;;;;;;;;10.20;99.90;;;;;;5098029;28;20404;-85
2023/05/31 00:59:58;;;;;;;;;;;10.20;99.90;;;;;;5093124;28;19928;-86
2023/05/31 01:02:24;;;;;;;;;;;10.10;99.90;;;;;;5092661;28;19927;-85
2023/05/31 01:04:50;;;;;;;;;;;10.10;99.90;;;;;;5091644;28;19935;-85
2023/05/31 01:07:15;;;;;;;;;;;10.10;99.90;;;;;;5100326;28;20304;-84
2023/05/31 01:09:42;;;;;;;;;;;10.10;99.90;;;;;;5095134;28;19940;-85
2023/05/31 01:12:08;;;;;;;;;;;9.90;99.90;;;;;;5091905;28;19951;-85
2023/05/31 01:14:48;;;;;;;;;;;9.90;99.90;;;;;;5098527;28;20493;-85
2023/05/31 01:17:34;;;;;;;;;;;10.00;99.90;;;;;;5092015;28;20635;-84
2023/05/31 01:20:01;;;;;;;;;;;10.10;99.90;;;;;;5087148;28;20538;-85
2023/05/31 01:22:32;;;;;;;;;;;10.00;99.90;;;;;;5076883;28;19923;-85
2023/05/31 01:25:04;;;;;;;;;;;10.00;99.90;;;;;;5094934;28;20014;-85
2023/05/31 01:27:30;;;;;;;;;;;10.10;99.90;;;;;;5090949;28;19927;-84
2023/05/31 01:29:58;;;;;;;;;;;10.10;99.90;;;;;;5099948;28;20345;-85
2023/05/31 01:32:24;;;;;;;;;;;10.10;99.90;;;;;;5091131;28;19934;-85
2023/05/31 01:34:50;;;;;;;;;;;10.10;99.90;;;;;;5088714;28;19927;-85
2023/05/31 01:37:16;;;;;;;;;;;10.00;99.90;;;;;;5079910;28;19973;-85
2023/05/31 01:39:41;;;;;;;;;;;10.00;99.90;;;;;;5090154;28;19935;-84
2023/05/31 01:42:09;;;;;;;;;;;10.10;99.90;;;;;;5094232;28;19932;-85
2023/05/31 01:44:35;;;;;;;;;;;10.10;99.90;;;;;;5093893;28;19927;-85
2023/05/31 01:47:01;;;;;;;;;;;10.00;99.90;;;;;;5097071;28;19964;-85
2023/05/31 01:49:26;;;;;;;;;;;10.00;99.90;;;;;;5095085;28;20045;-85
2023/05/31 01:51:52;;;;;;;;;;;10.00;99.90;;;;;;5089905;28;20035;-85
2023/05/31 01:54:18;;;;;;;;;;;10.00;99.90;;;;;;5096755;28;20330;-85
2023/05/31 01:56:45;;;;;;;;;;;9.90;99.90;;;;;;5092568;28;20389;-85
2023/05/31 01:59:11;;;;;;;;;;;9.90;99.90;;;;;;5097474;28;20014;-85
2023/05/31 02:01:38;;;;;;;;;;;10.00;99.90;;;;;;5093854;28;19936;-84
2023/05/31 02:04:03;;;;;;;;;;;9.80;99.90;;;;;;5094729;28;19959;-84
2023/05/31 02:06:29;;;;;;;;;;;9.80;99.90;;;;;;5090616;28;19964;-85
2023/05/31 02:08:54;;;;;;;;;;;9.80;99.90;;;;;;5079887;28;19935;-84
2023/05/31 02:11:20;;;;;;;;;;;9.80;99.90;;;;;;5094598;28;20002;-85
2023/05/31 02:13:46;;;;;;;;;;;9.70;99.90;;;;;;5093115;28;19936;-85
2023/05/31 02:16:11;;;;;;;;;;;9.70;99.90;;;;;;5093943;28;20004;-84
2023/05/31 02:18:37;;;;;;;;;;;9.70;99.90;;;;;;5070468;28;20342;-84
2023/05/31 02:21:02;;;;;;;;;;;9.70;99.90;;;;;;5100569;28;19932;-85
2023/05/31 02:23:28;;;;;;;;;;;9.60;99.90;;;;;;5094405;28;19928;-85
2023/05/31 02:25:55;;;;;;;;;;;9.60;99.90;;;;;;5083598;28;19928;-84
2023/05/31 02:28:20;;;;;;;;;;;9.60;99.90;;;;;;5080519;28;19939;-84
2023/05/31 02:30:56;;;;;;;;;;;9.60;99.90;;;;;;5097581;28;19934;-84
2023/05/31 02:33:21;;;;;;;;;;;9.60;99.90;;;;;;5095710;28;19928;-85
2023/05/31 02:35:47;;;;;;;;;;;9.50;99.90;;;;;;5097005;28;19932;-84
2023/05/31 02:38:13;;;;;;;;;;;9.50;99.90;;;;;;5094149;28;20373;-84
2023/05/31 02:40:38;;;;;;;;;;;9.50;99.90;;;;;;5082996;28;20026;-84
2023/05/31 02:43:04;;;;;;;;;;;9.50;99.90;;;;;;5101679;28;19932;-85
2023/05/31 02:45:30;;;;;;;;;;;9.60;99.90;;;;;;5099840;28;20629;-84
2023/05/31 02:47:55;;;;;;;;;;;9.40;99.90;;;;;;5092247;28;20058;-85
2023/05/31 02:50:21;;;;;;;;;;;9.50;99.90;;;;;;5080288;28;19984;-84
2023/05/31 02:52:46;;;;;;;;;;;9.60;99.90;;;;;;5094584;28;19947;-84
2023/05/31 02:55:12;;;;;;;;;;;9.40;99.90;;;;;;5094955;28;20019;-84
2023/05/31 02:57:38;;;;;;;;;;;9.50;99.90;;;;;;5098753;28;20015;-84
2023/05/31 03:00:22;;;;;;;;;;;9.50;99.90;;;;;;5094273;28;19932;-84
2023/05/31 03:02:47;;;;;;;;;;;9.40;99.90;;;;;;5093734;28;19928;-84
2023/05/31 03:05:13;;;;;;;;;;;9.40;99.90;;;;;;5094454;28;19932;-83
2023/05/31 03:07:39;;;;;;;;;;;9.40;99.90;;;;;;5095146;28;19934;-83
2023/05/31 03:10:05;;;;;;;;;;;9.40;99.90;;;;;;5098370;28;20015;-84
2023/05/31 03:12:31;;;;;;;;;;;9.40;99.90;;;;;;5097898;28;20026;-84
2023/05/31 03:14:56;;;;;;;;;;;9.40;99.90;;;;;;5093674;28;19928;-83
2023/05/31 03:17:22;;;;;;;;;;;9.40;99.90;;;;;;5099719;28;20269;-84
2023/05/31 03:19:47;;;;;;;;;;;9.50;99.90;;;;;;5096779;28;19973;-84
2023/05/31 03:22:13;;;;;;;;;;;9.40;99.90;;;;;;5075786;28;19924;-84
2023/05/31 03:24:40;;;;;;;;;;;9.30;99.90;;;;;;5096326;28;19935;-83
2023/05/31 03:27:06;;;;;;;;;;;9.30;99.90;;;;;;5095566;28;19931;-84
2023/05/31 03:29:31;;;;;;;;;;;9.30;99.90;;;;;;5091611;28;19924;-83
2023/05/31 03:31:57;;;;;;;;;;;9.20;99.90;;;;;;5088998;28;19928;-84
2023/05/31 03:34:22;;;;;;;;;;;9.30;99.90;;;;;;5098060;28;19935;-84
2023/05/31 03:36:48;;;;;;;;;;;9.30;99.90;;;;;;5091793;28;19932;-83
2023/05/31 03:39:13;;;;;;;;;;;9.30;99.90;;;;;;5094597;28;19993;-83
2023/05/31 03:41:39;;;;;;;;;;;9.40;99.90;;;;;;5092246;28;20414;-83
2023/05/31 03:44:04;;;;;;;;;;;9.30;99.90;;;;;;5080172;28;20342;-83
2023/05/31 03:46:30;;;;;;;;;;;9.30;99.90;;;;;;5094579;28;20485;-83
2023/05/31 03:48:55;;;;;;;;;;;9.30;99.90;;;;;;5094914;28;19928;-84
2023/05/31 03:51:21;;;;;;;;;;;9.40;99.90;;;;;;5099760;28;19927;-83
2023/05/31 03:53:47;;;;;;;;;;;9.40;99.90;;;;;;5096023;28;19928;-83
2023/05/31 03:56:12;;;;;;;;;;;9.40;99.90;;;;;;5096420;28;19928;-83
2023/05/31 03:58:38;;;;;;;;;;;9.40;99.90;;;;;;5093776;28;20024;-83
2023/05/31 04:01:04;;;;;;;;;;;9.50;99.90;;;;;;5094411;28;20007;-84
2023/05/31 04:03:29;;;;;;;;;;;9.40;99.90;;;;;;5076391;28;20194;-84
2023/05/31 04:05:55;;;;;;;;;;;9.50;99.90;;;;;;5097220;28;19967;-84
2023/05/31 04:08:20;;;;;;;;;;;9.60;99.90;;;;;;5091817;28;19927;-84
2023/05/31 04:10:46;;;;;;;;;;;9.60;99.90;;;;;;5096071;28;20002;-85
2023/05/31 04:13:11;;;;;;;;;;;9.60;99.90;;;;;;5086468;28;19931;-84
2023/05/31 04:15:37;;;;;;;;;;;9.70;99.90;;;;;;5093738;28;19935;-84
2023/05/31 04:18:03;;;;;;;;;;;9.70;99.90;;;;;;5076314;28;19935;-84
2023/05/31 04:20:28;;;;;;;;;;;9.80;99.90;;;;;;5092952;28;19940;-84
2023/05/31 04:22:54;;;;;;;;;;;9.80;99.90;;;;;;5089333;28;20382;-85
2023/05/31 04:25:20;;;;;;;;;;;9.90;99.90;;;;;;5084883;28;19938;-84
2023/05/31 04:27:45;;;;;;;;;;;9.90;99.90;;;;;;5084652;28;21429;-83
2023/05/31 04:30:12;;;;;;;;;;;10.00;99.90;;;;;;5097222;28;20383;-84
2023/05/31 04:32:37;;;;;;;;;;;10.00;99.90;;;;;;5090870;28;19977;-84
2023/05/31 04:35:04;;;;;;;;;;;10.20;99.90;;;;;;5092407;28;19931;-84
2023/05/31 04:37:30;;;;;;;;;;;10.40;99.90;;;;;;5077862;28;19931;-83
2023/05/31 04:39:56;;;;;;;;;;;10.50;99.90;;;;;;5095460;28;20332;-84
2023/05/31 04:42:24;;;;;;;;;;;10.60;99.90;;;;;;5093057;28;19943;-84
2023/05/31 04:44:57;;;;;;;;;;;10.70;99.90;;;;;;5079423;28;19935;-84
2023/05/31 04:47:29;;;;;;;;;;;13.10;99.90;;;;;;5076531;28;19931;-84
2023/05/31 04:49:56;;;;;;;;;;;15.00;99.90;;;;;;5092376;28;19935;-85
2023/05/31 04:52:32;;;;;;;;;;;16.60;99.90;;;;;;5091227;28;19928;-86
2023/05/31 04:54:58;;;;;;;;;;;17.50;99.90;;;;;;5077773;28;19928;-84
2023/05/31 04:57:24;;;;;;;;;;;18.50;99.90;;;;;;5095191;28;19952;-83
2023/05/31 04:59:50;;;;;;;;;;;19.30;99.90;;;;;;5093208;28;20332;-84
2023/05/31 05:02:17;;;;;;;;;;;20.10;99.90;;;;;;5081363;28;19934;-85
2023/05/31 05:04:43;;;;;;;;;;;20.00;99.90;;;;;;5066768;28;19992;-86
2023/05/31 05:07:08;;;;;;;;;;;20.90;99.90;;;;;;5083271;28;20372;-85
2023/05/31 05:09:34;;;;;;;;;;;21.40;99.90;;;;;;5092860;28;20444;-86
2023/05/31 05:12:00;;;;;;;;;;;22.00;99.90;;;;;;5079841;28;19931;-84
2023/05/31 05:14:25;;;;;;;;;;;22.40;99.90;;;;;;5071105;28;19932;-86
2023/05/31 05:16:51;;;;;;;;;;;22.30;99.90;;;;;;5090805;28;20045;-85
2023/05/31 05:19:16;;;;;;;;;;;22.70;99.90;;;;;;5089939;28;19974;-85
2023/05/31 05:21:42;;;;;;;;;;;23.20;99.90;;;;;;5094104;28;19934;-87
2023/05/31 05:24:07;;;;;;;;;;;22.70;99.90;;;;;;5083619;28;19935;-84
2023/05/31 05:26:33;;;;;;;;;;;22.70;99.90;;;;;;5076229;28;19973;-84
2023/05/31 05:28:59;;;;;;;;;;;23.70;99.90;;;;;;5090718;28;20496;-87
2023/05/31 05:31:24;;;;;;;;;;;23.70;99.90;;;;;;5078440;28;20274;-86
2023/05/31 05:33:50;;;;;;;;;;;23.70;99.90;;;;;;5092516;28;20011;-85
2023/05/31 05:36:16;;;;;;;;;;;23.90;99.90;;;;;;5074144;28;19924;-84
2023/05/31 05:38:41;;;;;;;;;;;24.00;99.90;;;;;;5094960;28;19934;-86
2023/05/31 05:41:10;;;;;;;;;;;22.50;99.90;;;;;;5087106;28;19928;-84
2023/05/31 05:43:36;;;;;;;;;;;23.00;99.90;;;;;;5070837;28;20021;-85
2023/05/31 05:46:02;;;;;;;;;;;21.60;99.90;;;;;;5093112;28;20227;-85
2023/05/31 05:48:27;;;;;;;;;;;19.70;99.90;;;;;;5094747;28;19982;-85
2023/05/31 05:50:53;;;;;;;;;;;19.60;99.90;;;;;;5074338;28;20048;-84
2023/05/31 05:53:18;;;;;;;;;;;19.10;99.90;;;;;;5093713;28;19931;-85
2023/05/31 05:55:47;;;;;;;;;;;18.80;99.90;;;;;;5095351;28;19928;-86
2023/05/31 05:58:16;;;;;;;;;;;19.10;99.90;;;;;;5096778;28;20072;-84
2023/05/31 06:00:42;;;;;;;;;;;19.00;99.90;;;;;;5078679;28;20042;-85
2023/05/31 06:03:08;;;;;;;;;;;18.50;99.90;;;;;;5096759;28;19950;-84
2023/05/31 06:05:33;;;;;;;;;;;18.10;99.90;;;;;;5095143;28;20285;-85
2023/05/31 06:08:00;;;;;;;;;;;18.80;99.90;;;;;;5086567;28;20387;-86
2023/05/31 06:10:25;;;;;;;;;;;18.60;99.90;;;;;;5100229;28;20298;-86
2023/05/31 06:12:51;;;;;;;;;;;18.70;99.90;;;;;;5098574;28;19988;-86
2023/05/31 06:15:16;;;;;;;;;;;18.80;99.90;;;;;;5101970;28;19984;-86
2023/05/31 06:17:43;;;;;;;;;;;19.00;99.90;;;;;;5092009;28;19932;-84
2023/05/31 06:20:10;;;;;;;;;;;18.90;99.90;;;;;;5104284;28;19928;-86
2023/05/31 06:22:36;;;;;;;;;;;18.00;99.90;;;;;;5100819;28;19924;-85
2023/05/31 06:25:02;;;;;;;;;;;18.10;99.90;;;;;;5103250;28;19928;-84
2023/05/31 06:27:27;;;;;;;;;;;18.80;99.90;;;;;;5104627;28;19930;-85
2023/05/31 06:29:57;;;;;;;;;;;18.60;99.90;;;;;;5103121;28;19936;-85
2023/05/31 06:32:26;;;;;;;;;;;19.10;99.90;;;;;;5102948;28;19931;-83
2023/05/31 06:34:52;;;;;;;;;;;19.20;99.90;;;;;;5085853;28;19934;-85
2023/05/31 06:37:18;;;;;;;;;;;19.00;99.90;;;;;;5100501;28;19932;-86
2023/05/31 06:39:44;;;;;;;;;;;19.10;99.90;;;;;;5099760;28;19924;-85
2023/05/31 06:42:11;;;;;;;;;;;19.40;99.90;;;;;;5103507;28;19932;-87
2023/05/31 06:44:37;;;;;;;;;;;19.30;99.90;;;;;;5101877;28;19932;-85
2023/05/31 06:47:02;;;;;;;;;;;19.40;99.90;;;;;;5100913;28;20035;-85
2023/05/31 06:49:28;;;;;;;;;;;19.50;99.90;;;;;;5101350;28;19928;-88
2023/05/31 06:51:54;;;;;;;;;;;19.30;99.90;;;;;;5084173;28;20573;-86
2023/05/31 06:54:19;;;;;;;;;;;20.00;99.90;;;;;;5104667;28;19924;-86
2023/05/31 06:56:45;;;;;;;;;;;20.20;99.90;;;;;;5100804;28;19928;-88
2023/05/31 06:59:10;;;;;;;;;;;20.10;99.90;;;;;;5100723;28;19930;-85
2023/05/31 07:01:36;;;;;;;;;;;20.30;99.90;;;;;;5102606;28;19924;-86
2023/05/31 07:04:02;;;;;;;;;;;19.90;99.90;;;;;;5102151;28;20010;-87
2023/05/31 07:06:28;;;;;;;;;;;19.60;99.90;;;;;;5099106;28;19931;-88
2023/05/31 07:08:53;;;;;;;;;;;19.90;99.90;;;;;;5099877;28;19924;-86
2023/05/31 07:11:19;;;;;;;;;;;20.30;99.90;;;;;;5102409;28;19951;-86
2023/05/31 07:13:44;;;;;;;;;;;20.00;99.90;;;;;;5099057;28;19937;-85
2023/05/31 07:16:10;;;;;;;;;;;19.90;99.90;;;;;;5100024;28;19938;-85
2023/05/31 07:18:36;;;;;;;;;;;20.40;99.90;;;;;;5104373;28;19928;-86
2023/05/31 07:21:01;;;;;;;;;;;20.00;99.90;;;;;;5083084;28;19931;-86
2023/05/31 07:23:27;;;;;;;;;;;20.10;99.90;;;;;;5102239;28;19980;-87
2023/05/31 07:25:53;;;;;;;;;;;20.30;99.90;;;;;;5101022;28;19927;-86
2023/05/31 07:28:18;;;;;;;;;;;20.40;99.90;;;;;;5100715;28;19928;-88
2023/05/31 07:30:44;;;;;;;;;;;20.30;99.90;;;;;;5100815;28;19924;-86
2023/05/31 07:33:09;;;;;;;;;;;20.70;99.90;;;;;;5103245;28;19928;-86
2023/05/31 07:35:35;;;;;;;;;;;20.60;99.90;;;;;;5103145;28;19982;-84
2023/05/31 07:38:00;;;;;;;;;;;20.00;99.90;;;;;;5100913;28;19931;-86
2023/05/31 07:40:26;;;;;;;;;;;20.30;99.90;;;;;;5101538;28;19950;-87
2023/05/31 07:42:53;;;;;;;;;;;20.20;99.90;;;;;;5084218;28;19928;-87
2023/05/31 07:45:18;;;;;;;;;;;20.50;99.90;;;;;;5102125;28;19932;-85
2023/05/31 07:47:44;;;;;;;;;;;20.20;99.90;;;;;;5085231;28;19931;-86
2023/05/31 07:50:10;;;;;;;;;;;20.30;99.90;;;;;;5100766;28;19931;-86
2023/05/31 07:52:35;;;;;;;;;;;20.00;99.90;;;;;;5101838;28;20015;-86
2023/05/31 07:55:01;;;;;;;;;;;20.60;99.90;;;;;;5100464;28;20315;-87
2023/05/31 07:57:26;;;;;;;;;;;20.40;99.90;;;;;;5101912;28;20050;-88
2023/05/31 07:59:52;;;;;;;;;;;20.90;99.90;;;;;;5099452;28;19931;-89
2023/05/31 08:02:18;;;;;;;;;;;21.20;99.90;;;;;;5099654;28;19932;-88
2023/05/31 08:04:43;;;;;;;;;;;21.20;99.90;;;;;;5083294;28;20389;-87
2023/05/31 08:07:09;;;;;;;;;;;21.50;99.90;;;;;;5093233;28;20477;-87
2023/05/31 08:09:35;;;;;;;;;;;21.40;99.90;;;;;;5059107;28;19928;-88
2023/05/31 08:12:02;;;;;;;;;;;21.40;99.90;;;;;;5074388;28;19928;-87
2023/05/31 08:14:28;;;;;;;;;;;21.40;99.90;;;;;;5097637;28;19950;-87
2023/05/31 08:16:54;;;;;;;;;;;21.20;99.90;;;;;;5081616;28;20359;-88
2023/05/31 08:19:19;;;;;;;;;;;21.40;99.90;;;;;;5077308;28;20005;-87
2023/05/31 08:21:46;;;;;;;;;;;21.80;99.90;;;;;;5101284;28;20273;-87
2023/05/31 08:24:12;;;;;;;;;;;21.90;99.90;;;;;;5098650;28;19974;-86
2023/05/31 08:26:37;;;;;;;;;;;21.90;99.90;;;;;;5101293;28;19927;-86
2023/05/31 08:29:03;;;;;;;;;;;21.70;99.90;;;;;;5096397;28;19924;-86
2023/05/31 08:31:28;;;;;;;;;;;22.20;99.90;;;;;;5102452;28;19927;-87
2023/05/31 08:33:58;;;;;;;;;;;21.20;99.90;;;;;;5082761;28;20441;-86
2023/05/31 08:36:24;;;;;;;;;;;21.70;99.90;;;;;;5099816;28;19927;-87
2023/05/31 08:38:49;;;;;;;;;;;21.90;99.90;;;;;;5094310;28;19981;-86
2023/05/31 08:41:15;;;;;;;;;;;21.90;99.90;;;;;;5085058;28;19927;-89
2023/05/31 08:43:41;;;;;;;;;;;21.60;99.90;;;;;;5097650;28;19928;-79
2023/05/31 08:46:07;;;;;;;;;;;21.70;99.90;;;;;;5097939;28;20404;-86
2023/05/31 08:48:45;;;;;;;;;;;21.40;99.90;;;;;;5099900;28;19927;-85
2023/05/31 08:51:11;;;;;;;;;;;22.10;99.90;;;;;;5096151;28;19966;-87
2023/05/31 08:53:38;;;;;;;;;;;22.10;99.90;;;;;;5100649;28;19978;-88
2023/05/31 08:56:04;;;;;;;;;;;22.50;99.90;;;;;;5096677;28;20341;-87
2023/05/31 08:58:30;;;;;;;;;;;23.10;99.90;;;;;;5096670;28;19931;-87
2023/05/31 09:00:56;;;;;;;;;;;22.90;99.90;;;;;;5095662;28;19936;-87
2023/05/31 09:03:22;;;;;;;;;;;23.30;99.90;;;;;;5097348;28;20304;-88
2023/05/31 09:05:48;;;;;;;;;;;22.90;99.90;;;;;;5096552;28;19931;-89
2023/05/31 09:08:16;;;;;;;;;;;23.50;99.90;;;;;;5094193;28;19968;-86
2023/05/31 09:10:42;;;;;;;;;;;23.40;99.90;;;;;;5097921;28;19931;-86
2023/05/31 09:13:08;;;;;;;;;;;23.00;99.90;;;;;;5096185;28;19977;-85
2023/05/31 09:15:35;;;;;;;;;;;23.10;99.90;;;;;;5089739;28;19934;-87
2023/05/31 09:18:19;;;;;;;;;;;23.50;99.90;;;;;;5096978;28;19966;-87
2023/05/31 09:20:46;;;;;;;;;;;23.30;99.90;;;;;;5098331;28;19935;-89
2023/05/31 09:23:12;;;;;;;;;;;23.50;99.90;;;;;;5099508;28;20326;-86
2023/05/31 09:25:44;;;;;;;;;;;23.40;99.90;;;;;;5099741;28;19931;-88
2023/05/31 09:28:10;;;;;;;;;;;23.80;99.90;;;;;;5081444;28;19927;-88
2023/05/31 09:30:36;;;;;;;;;;;23.80;99.90;;;;;;5096040;28;19969;-87
2023/05/31 09:33:01;;;;;;;;;;;23.90;99.90;;;;;;5097070;28;19955;-85
2023/05/31 09:35:27;;;;;;;;;;;23.90;99.90;;;;;;5096360;28;20009;-85
2023/05/31 09:37:53;;;;;;;;;;;24.00;99.90;;;;;;5094465;28;19934;-86
2023/05/31 09:40:33;;;;;;;;;;;23.80;99.90;;;;;;5097091;28;19935;-87
2023/05/31 09:42:59;;;;;;;;;;;23.80;99.90;;;;;;5090698;28;19931;-90
2023/05/31 09:45:25;;;;;;;;;;;24.20;99.90;;;;;;5078988;28;19933;-87
2023/05/31 09:47:51;;;;;;;;;;;24.50;99.90;;;;;;5096995;28;20426;-85
2023/05/31 09:50:20;;;;;;;;;;;24.20;99.90;;;;;;5096288;28;19958;-84
2023/05/31 09:52:47;;;;;;;;;;;24.20;99.90;;;;;;5093599;28;19924;-83
2023/05/31 09:55:14;;;;;;;;;;;24.20;99.90;;;;;;5094218;28;19976;-86
2023/05/31 09:57:40;;;;;;;;;;;24.60;99.90;;;;;;5097330;28;19935;-88
2023/05/31 10:00:14;;;;;;;;;;;24.80;99.90;;;;;;5094045;28;19935;-87
2023/05/31 10:02:53;;;;;;;;;;;24.60;99.90;;;;;;5100948;28;19947;-89
2023/05/31 10:05:20;;;;;;;;;;;24.60;99.90;;;;;;5094741;28;20019;-85
2023/05/31 10:07:46;;;;;;;;;;;24.70;99.90;;;;;;5078122;28;19927;-86
2023/05/31 10:10:13;;;;;;;;;;;25.00;99.90;;;;;;5097800;28;19928;-87
2023/05/31 10:12:45;;;;;;;;;;;24.40;99.90;;;;;;5099168;28;20376;-84
2023/05/31 10:15:12;;;;;;;;;;;24.20;99.90;;;;;;5093232;28;19981;-87
2023/05/31 10:17:42;;;;;;;;;;;25.10;99.90;;;;;;5098908;28;19928;-86
2023/05/31 10:20:09;;;;;;;;;;;24.10;99.90;;;;;;5082201;28;19928;-86
2023/05/31 10:22:36;;;;;;;;;;;24.80;99.90;;;;;;5082744;28;19928;-86
2023/05/31 10:25:10;;;;;;;;;;;24.60;99.90;;;;;;5092047;28;19987;-88
2023/05/31 10:27:38;;;;;;;;;;;24.80;99.90;;;;;;5095263;28;19970;-86
2023/05/31 10:30:04;;;;;;;;;;;24.40;99.90;;;;;;5096473;28;20452;-88
2023/05/31 10:32:38;;;;;;;;;;;24.70;99.90;;;;;;5096753;28;20019;-87
2023/05/31 10:35:05;;;;;;;;;;;24.80;99.90;;;;;;5090021;28;20006;-86
2023/05/31 10:37:31;;;;;;;;;;;24.70;99.90;;;;;;5080755;28;19928;-87
2023/05/31 10:40:01;;;;;;;;;;;24.90;99.90;;;;;;5098213;28;20296;-85
2023/05/31 10:42:39;;;;;;;;;;;25.50;99.90;;;;;;5102514;28;19951;-91
2023/05/31 10:45:12;;;;;;;;;;;24.50;99.90;;;;;;5082166;28;20286;-86
2023/05/31 10:47:40;;;;;;;;;;;25.20;99.90;;;;;;5101176;28;20010;-89
2023/05/31 10:50:06;;;;;;;;;;;25.00;99.90;;;;;;5083934;28;19931;-86
2023/05/31 10:52:31;;;;;;;;;;;24.50;99.90;;;;;;5083124;28;19930;-87
2023/05/31 10:55:17;;;;;;;;;;;24.50;99.90;;;;;;5097663;28;19971;-87
2023/05/31 10:57:43;;;;;;;;;;;25.20;99.90;;;;;;5081792;28;19928;-86
2023/05/31 11:00:11;;;;;;;;;;;25.10;99.90;;;;;;5077677;28;20761;-91
2023/05/31 11:02:45;;;;;;;;;;;24.40;99.90;;;;;;5083008;28;19932;-87
2023/05/31 11:05:24;;;;;;;;;;;25.20;99.90;;;;;;5085101;28;19955;-89
2023/05/31 11:07:51;;;;;;;;;;;25.40;99.90;;;;;;5093512;28;20393;-85
2023/05/31 11:10:24;;;;;;;;;;;25.20;99.90;;;;;;5102495;28;20313;-88
2023/05/31 11:12:49;;;;;;;;;;;25.40;99.90;;;;;;5101666;28;19935;-88
2023/05/31 11:15:15;;;;;;;;;;;25.70;99.90;;;;;;5098683;28;19928;-87
2023/05/31 11:17:59;;;;;;;;;;;25.70;99.90;;;;;;5099779;28;20530;-88
2023/05/31 11:20:28;;;;;;;;;;;25.60;99.90;;;;;;5105726;28;20015;-85
2023/05/31 11:23:12;;;;;;;;;;;25.80;99.90;;;;;;5102412;28;19950;-86
2023/05/31 11:25:38;;;;;;;;;;;25.70;99.90;;;;;;5073649;28;19964;-87
2023/05/31 11:28:05;;;;;;;;;;;25.00;99.90;;;;;;5095638;28;19963;-87
2023/05/31 11:30:35;;;;;;;;;;;25.80;99.90;;;;;;5097163;28;20401;-86
2023/05/31 11:33:01;;;;;;;;;;;25.00;99.90;;;;;;5092975;28;21651;-87
2023/05/31 11:35:30;;;;;;;;;;;25.20;99.90;;;;;;5081459;28;19931;-87
2023/05/31 11:37:59;;;;;;;;;;;25.80;99.90;;;;;;5082086;28;20369;-87
2023/05/31 11:40:25;;;;;;;;;;;25.90;99.90;;;;;;5097420;28;19984;-84
2023/05/31 11:42:53;;;;;;;;;;;25.10;99.90;;;;;;5100771;28;19935;-87
2023/05/31 11:45:22;;;;;;;;;;;25.40;99.90;;;;;;5098141;28;20381;-86
2023/05/31 11:47:48;;;;;;;;;;;25.80;99.90;;;;;;5096729;28;20001;-87
2023/05/31 11:50:16;;;;;;;;;;;26.00;99.90;;;;;;5100906;28;20377;-86
2023/05/31 11:52:41;;;;;;;;;;;25.70;99.90;;;;;;5095409;28;19935;-87
2023/05/31 11:55:07;;;;;;;;;;;25.40;99.90;;;;;;5082702;28;19931;-88
2023/05/31 11:57:41;;;;;;;;;;;25.80;99.90;;;;;;5102038;28;19928;-86
2023/05/31 12:00:09;;;;;;;;;;;26.00;99.90;;;;;;5102030;28;19928;-88
2023/05/31 12:02:34;;;;;;;;;;;26.20;99.90;;;;;;5082709;28;19928;-86
2023/05/31 12:05:00;;;;;;;;;;;26.20;99.90;;;;;;5099865;28;19928;-87
2023/05/31 12:07:26;;;;;;;;;;;25.80;99.90;;;;;;5078613;28;19963;-86
2023/05/31 12:09:51;;;;;;;;;;;25.30;99.90;;;;;;5100898;28;19930;-85
2023/05/31 12:12:17;;;;;;;;;;;25.80;99.70;;;;;;5098380;28;19924;-87
2023/05/31 12:14:52;;;;;;;;;;;25.60;99.90;;;;;;5079893;28;20019;-84
2023/05/31 12:17:18;;;;;;;;;;;26.40;99.90;;;;;;5083157;28;19934;-88
2023/05/31 12:19:46;;;;;;;;;;;26.20;99.90;;;;;;5097701;28;19928;-85
2023/05/31 12:22:12;;;;;;;;;;;26.60;99.90;;;;;;5081685;28;20381;-89
2023/05/31 12:24:47;;;;;;;;;;;26.50;99.90;;;;;;5082556;28;19969;-88
2023/05/31 12:27:13;;;;;;;;;;;26.20;99.90;;;;;;5097965;28;20012;-86
2023/05/31 12:29:39;;;;;;;;;;;25.60;99.90;;;;;;5102110;28;19934;-87
2023/05/31 12:32:05;;;;;;;;;;;25.20;99.90;;;;;;5096889;28;20018;-86
2023/05/31 12:34:35;;;;;;;;;;;25.40;99.90;;;;;;5100208;28;20433;-88
2023/05/31 12:37:04;;;;;;;;;;;24.80;99.90;;;;;;5096967;28;19939;-85
2023/05/31 12:39:45;;;;;;;;;;;25.80;99.90;;;;;;5081047;28;19928;-89
2023/05/31 12:42:10;;;;;;;;;;;25.80;99.90;;;;;;5096077;28;19943;-87
2023/05/31 12:44:38;;;;;;;;;;;26.40;99.90;;;;;;5097450;28;19931;-86
2023/05/31 12:47:07;;;;;;;;;;;26.60;99.90;;;;;;5090828;28;19928;-85
2023/05/31 12:49:33;;;;;;;;;;;26.60;99.90;;;;;;5090892;28;19936;-87
2023/05/31 12:52:06;;;;;;;;;;;26.30;99.90;;;;;;5098295;28;19935;-86
2023/05/31 12:54:35;;;;;;;;;;;25.80;99.90;;;;;;5097641;28;19927;-87
2023/05/31 12:57:03;;;;;;;;;;;26.20;99.90;;;;;;5081529;28;20645;-94
2023/05/31 12:59:30;;;;;;;;;;;26.40;99.90;;;;;;5081081;28;19977;-84
2023/05/31 13:01:56;;;;;;;;;;;26.20;99.90;;;;;;5084058;28;19928;-89
2023/05/31 13:04:22;;;;;;;;;;;26.40;99.90;;;;;;5070845;28;19930;-87
2023/05/31 13:06:47;;;;;;;;;;;26.40;99.90;;;;;;5073015;28;19928;-83
2023/05/31 13:09:13;;;;;;;;;;;27.00;99.90;;;;;;5086853;28;19957;-87
2023/05/31 13:11:39;;;;;;;;;;;26.10;99.90;;;;;;5087150;28;20007;-87
2023/05/31 13:14:08;;;;;;;;;;;26.50;99.90;;;;;;5072639;28;20034;-85
2023/05/31 13:16:34;;;;;;;;;;;26.60;99.90;;;;;;5087386;28;19947;-85
2023/05/31 13:19:00;;;;;;;;;;;27.10;99.90;;;;;;5090912;28;19935;-87
2023/05/31 13:21:27;;;;;;;;;;;26.80;99.90;;;;;;5073686;28;19930;-86
2023/05/31 13:23:52;;;;;;;;;;;26.60;99.90;;;;;;5088378;28;19967;-87
2023/05/31 13:26:18;;;;;;;;;;;26.90;99.90;;;;;;5087914;28;20024;-87
2023/05/31 13:28:44;;;;;;;;;;;27.10;99.90;;;;;;5086893;28;19928;-83
2023/05/31 13:31:09;;;;;;;;;;;27.00;99.90;;;;;;5090720;28;20412;-86
2023/05/31 13:33:35;;;;;;;;;;;26.60;99.90;;;;;;5085242;28;20008;-84
2023/05/31 13:36:00;;;;;;;;;;;26.90;99.90;;;;;;5085508;28;19932;-87
2023/05/31 13:38:27;;;;;;;;;;;26.60;99.90;;;;;;5081493;28;20100;-91
2023/05/31 13:40:52;;;;;;;;;;;26.50;99.90;;;;;;5073282;28;19924;-88
2023/05/31 13:43:18;;;;;;;;;;;26.20;99.90;;;;;;5083287;28;19954;-89
2023/05/31 13:45:44;;;;;;;;;;;26.40;99.90;;;;;;5069518;28;19924;-88
2023/05/31 13:48:10;;;;;;;;;;;25.80;99.90;;;;;;5082011;28;19972;-90
2023/05/31 13:50:36;;;;;;;;;;;25.90;99.90;;;;;;5062559;28;19986;-85
2023/05/31 13:53:01;;;;;;;;;;;25.90;99.90;;;;;;5073423;28;19939;-84
2023/05/31 13:55:27;;;;;;;;;;;26.50;99.90;;;;;;5086555;28;19937;-85
2023/05/31 13:57:52;;;;;;;;;;;26.50;99.90;;;;;;5063452;28;19929;-85
2023/05/31 14:00:19;;;;;;;;;;;25.80;99.90;;;;;;5081012;28;19928;-87
2023/05/31 14:02:44;;;;;;;;;;;25.70;99.90;;;;;;5082823;28;19930;-84
2023/05/31 14:05:10;;;;;;;;;;;25.60;99.90;;;;;;5084081;28;20405;-90
2023/05/31 14:07:35;;;;;;;;;;;25.90;99.90;;;;;;5070101;28;19985;-84
2023/05/31 14:10:03;;;;;;;;;;;26.10;99.80;;;;;;5092038;28;20711;-84
2023/05/31 14:12:29;;;;;;;;;;;25.40;99.90;;;;;;5087084;28;19931;-85
2023/05/31 14:14:55;;;;;;;;;;;25.30;99.90;;;;;;5080250;28;19924;-86
2023/05/31 14:17:21;;;;;;;;;;;25.60;99.90;;;;;;5092144;28;19977;-87